createdAt,value
2023-05-07T00:00:09.115Z,7.72
2023-05-07T00:02:38.606Z,7.93
2023-05-07T00:05:06.509Z,6.63
2023-05-07T00:07:34.384Z,8.88
2023-05-07T00:10:01.768Z,9.27
2023-05-07T00:12:34.991Z,7.30
2023-05-07T00:15:04.334Z,7.82
2023-05-07T00:17:35.486Z,8.80
2023-05-07T00:20:04.653Z,11.23
2023-05-07T00:22:34.379Z,8.18
2023-05-07T00:25:01.912Z,9.07
2023-05-07T00:27:34.106Z,10.40
2023-05-07T00:30:01.605Z,11.88
2023-05-07T00:35:02.339Z,8.48
2023-05-07T00:37:31.565Z,11.02
2023-05-07T00:39:58.977Z,7.10
2023-05-07T00:42:26.097Z,9.05
2023-05-07T00:44:53.235Z,6.47
2023-05-07T00:47:20.433Z,9.32
2023-05-07T00:49:47.567Z,8.73
2023-05-07T00:52:16.741Z,8.18
2023-05-07T00:54:44.676Z,7.38
2023-05-07T00:57:15.301Z,13.15
2023-05-07T00:59:43.179Z,11.98
2023-05-07T01:02:10.458Z,9.25
2023-05-07T01:04:38.163Z,8.52
2023-05-07T01:07:06.560Z,8.00
2023-05-07T01:09:36.427Z,8.90
2023-05-07T01:12:04.877Z,11.32
2023-05-07T01:14:34.211Z,10.07
2023-05-07T01:17:01.740Z,8.38
2023-05-07T01:19:31.352Z,9.65
2023-05-07T01:22:05.352Z,8.40
2023-05-07T01:24:39.210Z,8.23
2023-05-07T01:27:08.089Z,11.43
2023-05-07T01:29:36.643Z,10.63
2023-05-07T01:32:04.617Z,8.38
2023-05-07T01:34:34.076Z,7.45
2023-05-07T01:37:01.763Z,8.88
2023-05-07T01:39:30.622Z,9.23
2023-05-07T01:41:57.859Z,8.75
2023-05-07T01:44:26.010Z,12.10
2023-05-07T01:46:54.859Z,8.90
2023-05-07T01:49:22.323Z,8.10
2023-05-07T01:51:50.164Z,5.53
2023-05-07T01:54:17.833Z,7.22
2023-05-07T01:56:45.785Z,5.97
2023-05-07T01:59:14.698Z,7.90
2023-05-07T02:01:41.999Z,8.80
2023-05-07T02:04:11.011Z,6.68
2023-05-07T02:06:38.371Z,7.82
2023-05-07T02:09:07.272Z,5.53
2023-05-07T02:11:34.685Z,6.53
2023-05-07T02:14:02.290Z,9.07
2023-05-07T02:16:29.677Z,7.00
2023-05-07T02:18:57.737Z,10.25
2023-05-07T02:21:26.341Z,7.63
2023-05-07T02:23:53.452Z,7.65
2023-05-07T02:26:20.509Z,5.75
2023-05-07T02:28:48.398Z,6.18
2023-05-07T02:31:15.733Z,7.95
2023-05-07T02:33:42.897Z,6.55
2023-05-07T02:36:11.664Z,10.68
2023-05-07T02:38:48.252Z,6.32
2023-05-07T02:41:15.613Z,9.07
2023-05-07T02:43:42.819Z,6.68
2023-05-07T02:46:11.212Z,8.30
2023-05-07T02:48:42.521Z,6.32
2023-05-07T02:51:09.679Z,6.78
2023-05-07T02:53:39.007Z,6.50
2023-05-07T02:56:07.483Z,8.07
2023-05-07T02:58:34.698Z,8.50
2023-05-07T03:01:03.218Z,7.20
2023-05-07T03:03:53.632Z,5.90
2023-05-07T03:06:20.708Z,6.72
2023-05-07T03:08:48.029Z,6.90
2023-05-07T03:11:15.768Z,7.38
2023-05-07T03:13:42.927Z,6.80
2023-05-07T03:16:10.316Z,7.60
2023-05-07T03:18:37.586Z,7.30
2023-05-07T03:21:04.752Z,8.80
2023-05-07T03:23:31.859Z,7.13
2023-05-07T03:25:59.125Z,8.43
2023-05-07T03:28:26.944Z,9.18
2023-05-07T03:30:59.754Z,6.70
2023-05-07T03:33:28.487Z,5.78
2023-05-07T03:35:56.403Z,8.02
2023-05-07T03:38:25.683Z,6.70
2023-05-07T03:40:53.020Z,7.15
2023-05-07T03:43:20.389Z,7.63
2023-05-07T03:45:52.932Z,7.78
2023-05-07T03:48:24.598Z,8.00
2023-05-07T03:50:53.958Z,7.55
2023-05-07T03:53:21.997Z,6.95
2023-05-07T03:55:49.119Z,8.48
2023-05-07T03:58:16.618Z,8.48
2023-05-07T04:00:44.108Z,8.10
2023-05-07T04:03:21.868Z,8.18
2023-05-07T04:05:50.092Z,9.88
2023-05-07T04:08:17.284Z,8.23
2023-05-07T04:10:48.699Z,7.95
2023-05-07T04:13:15.909Z,7.82
2023-05-07T04:15:43.616Z,8.23
2023-05-07T04:18:13.426Z,11.32
2023-05-07T04:20:44.076Z,8.75
2023-05-07T04:23:13.997Z,9.02
2023-05-07T04:25:41.864Z,7.53
2023-05-07T04:28:20.593Z,9.23
2023-05-07T04:30:48.022Z,6.63
2023-05-07T04:33:18.069Z,5.47
2023-05-07T04:35:46.188Z,6.03
2023-05-07T04:38:14.064Z,7.40
2023-05-07T04:40:42.250Z,7.22
2023-05-07T04:43:11.939Z,5.95
2023-05-07T04:48:13.233Z,7.10
2023-05-07T04:50:41.851Z,8.38
2023-05-07T04:53:09.516Z,7.55
2023-05-07T04:55:36.773Z,5.82
2023-05-07T04:58:05.953Z,6.22
2023-05-07T05:00:35.404Z,7.03
2023-05-07T05:03:04.919Z,6.60
2023-05-07T05:05:32.758Z,6.78
2023-05-07T05:08:00.071Z,6.78
2023-05-07T05:10:27.534Z,6.75
2023-05-07T05:12:54.771Z,6.38
2023-05-07T05:15:23.583Z,5.03
2023-05-07T05:17:50.958Z,4.63
2023-05-07T05:20:19.705Z,6.80
2023-05-07T05:22:48.979Z,4.70
2023-05-07T05:25:16.304Z,5.00
2023-05-07T05:27:43.458Z,3.65
2023-05-07T05:30:11.427Z,4.25
2023-05-07T05:32:39.969Z,5.28
2023-05-07T05:35:08.206Z,5.45
2023-05-07T05:37:36.395Z,4.70
2023-05-07T05:40:07.015Z,4.57
2023-05-07T05:42:34.575Z,3.95
2023-05-07T05:45:02.269Z,1.85
2023-05-07T05:47:33.393Z,4.13
2023-05-07T05:50:01.331Z,5.60
2023-05-07T05:52:32.817Z,4.32
2023-05-07T05:55:00.339Z,4.15
2023-05-07T05:57:28.770Z,3.80
2023-05-07T05:59:56.995Z,5.97
2023-05-07T06:02:25.453Z,3.65
2023-05-07T06:04:53.630Z,7.75
2023-05-07T06:07:22.926Z,5.65
2023-05-07T06:09:50.505Z,4.00
2023-05-07T06:12:18.046Z,7.90
2023-05-07T06:14:45.419Z,4.55
2023-05-07T06:17:13.483Z,6.78
2023-05-07T06:19:40.886Z,4.90
2023-05-07T06:22:08.603Z,6.65
2023-05-07T06:24:36.690Z,5.15
2023-05-07T06:27:06.317Z,4.57
2023-05-07T06:29:34.006Z,4.82
2023-05-07T06:32:20.883Z,3.28
2023-05-07T06:34:47.953Z,4.40
2023-05-07T06:37:16.194Z,3.75
2023-05-07T06:39:54.142Z,6.55
2023-05-07T06:42:21.312Z,4.35
2023-05-07T06:44:50.112Z,5.63
2023-05-07T06:47:18.724Z,4.78
2023-05-07T06:49:50.574Z,4.97
2023-05-07T06:52:22.007Z,3.72
2023-05-07T06:54:51.199Z,5.22
2023-05-07T06:57:21.464Z,4.43
2023-05-07T06:59:48.655Z,3.58
2023-05-07T07:02:18.172Z,5.13
2023-05-07T07:04:47.150Z,4.03
2023-05-07T07:07:14.933Z,3.67
2023-05-07T07:09:44.437Z,3.28
2023-05-07T07:12:11.979Z,5.30
2023-05-07T07:14:41.297Z,4.63
2023-05-07T07:17:08.336Z,3.70
2023-05-07T07:19:35.555Z,6.30
2023-05-07T07:22:04.425Z,2.67
2023-05-07T07:24:31.768Z,3.88
2023-05-07T07:27:02.288Z,4.90
2023-05-07T07:29:30.150Z,4.85
2023-05-07T07:31:57.741Z,4.90
2023-05-07T07:34:25.183Z,3.78
2023-05-07T07:36:52.656Z,4.60
2023-05-07T07:39:20.392Z,5.07
2023-05-07T07:41:50.844Z,5.65
2023-05-07T07:44:19.390Z,6.43
2023-05-07T07:46:51.945Z,4.20
2023-05-07T07:49:20.648Z,4.75
2023-05-07T07:51:48.497Z,3.65
2023-05-07T07:54:16.579Z,4.35
2023-05-07T07:56:44.097Z,5.93
2023-05-07T07:59:12.326Z,4.20
2023-05-07T08:01:41.419Z,6.40
2023-05-07T08:04:08.957Z,4.88
2023-05-07T08:06:39.669Z,4.07
2023-05-07T08:09:09.445Z,4.35
2023-05-07T08:11:39.753Z,5.47
2023-05-07T08:14:07.180Z,3.25
2023-05-07T08:16:34.502Z,4.03
2023-05-07T08:19:02.513Z,4.63
2023-05-07T08:21:30.475Z,4.35
2023-05-07T08:23:58.512Z,4.50
2023-05-07T08:26:25.648Z,2.38
2023-05-07T08:28:52.902Z,4.65
2023-05-07T08:31:20.201Z,5.78
2023-05-07T08:33:47.758Z,3.42
2023-05-07T08:36:14.852Z,3.72
2023-05-07T08:38:43.981Z,3.30
2023-05-07T08:41:12.211Z,3.17
2023-05-07T08:43:43.145Z,3.85
2023-05-07T08:46:14.149Z,5.63
2023-05-07T08:48:43.903Z,3.58
2023-05-07T08:51:17.312Z,3.67
2023-05-07T08:53:45.628Z,5.05
2023-05-07T08:56:20.296Z,6.70
2023-05-07T08:58:49.321Z,5.32
2023-05-07T09:01:18.329Z,4.97
2023-05-07T09:03:49.335Z,3.35
2023-05-07T09:06:16.788Z,3.42
2023-05-07T09:08:55.720Z,5.63
2023-05-07T09:11:26.432Z,6.63
2023-05-07T09:13:57.592Z,4.25
2023-05-07T09:16:27.314Z,4.40
2023-05-07T09:18:56.754Z,5.47
2023-05-07T09:21:24.353Z,4.07
2023-05-07T09:23:56.550Z,5.55
2023-05-07T09:26:30.673Z,5.10
2023-05-07T09:28:57.962Z,5.80
2023-05-07T09:31:26.221Z,5.28
2023-05-07T09:33:57.062Z,5.18
2023-05-07T09:36:28.317Z,3.85
2023-05-07T09:38:55.463Z,3.92
2023-05-07T09:41:22.774Z,4.47
2023-05-07T09:44:12.109Z,3.25
2023-05-07T09:46:47.937Z,4.32
2023-05-07T09:49:26.171Z,5.47
2023-05-07T09:52:02.000Z,3.45
2023-05-07T09:54:33.914Z,4.63
2023-05-07T09:57:04.200Z,3.17
2023-05-07T09:59:33.998Z,5.68
2023-05-07T10:02:05.394Z,4.88
2023-05-07T10:04:37.020Z,2.92
2023-05-07T10:07:06.060Z,3.47
2023-05-07T10:09:34.527Z,2.22
2023-05-07T10:12:02.199Z,5.28
2023-05-07T10:14:30.682Z,3.08
2023-05-07T10:16:58.475Z,3.22
2023-05-07T10:19:27.535Z,2.95
2023-05-07T10:22:03.208Z,4.05
2023-05-07T10:24:35.218Z,6.50
2023-05-07T10:27:12.156Z,5.32
2023-05-07T10:30:00.002Z,5.97
2023-05-07T10:32:49.892Z,4.93
2023-05-07T10:35:30.585Z,5.13
2023-05-07T10:37:58.992Z,4.57
2023-05-07T10:40:28.796Z,4.25
2023-05-07T10:42:59.155Z,5.38
2023-05-07T10:45:28.902Z,4.55
2023-05-07T10:48:29.017Z,2.88
2023-05-07T10:51:23.299Z,2.55
2023-05-07T10:54:10.917Z,4.57
2023-05-07T10:56:45.424Z,2.45
2023-05-07T10:59:24.881Z,2.90
2023-05-07T11:01:57.300Z,5.82
2023-05-07T11:04:40.070Z,5.80
2023-05-07T11:07:31.881Z,3.08
2023-05-07T11:10:10.199Z,4.18
2023-05-07T11:12:54.089Z,6.95
2023-05-07T11:18:18.663Z,1.63
2023-05-07T11:20:48.812Z,5.65
2023-05-07T11:23:39.477Z,3.38
2023-05-07T11:26:14.538Z,3.42
2023-05-07T11:28:43.828Z,4.30
2023-05-07T11:31:31.226Z,3.33
2023-05-07T11:34:01.952Z,4.97
2023-05-07T11:36:33.448Z,4.13
2023-05-07T11:39:02.910Z,7.40
2023-05-07T11:41:38.178Z,3.20
2023-05-07T11:44:05.539Z,10.30
2023-05-07T11:46:33.540Z,3.60
2023-05-07T11:49:01.984Z,4.38
2023-05-07T11:51:29.482Z,5.35
2023-05-07T11:53:56.571Z,5.90
2023-05-07T11:56:24.169Z,5.47
2023-05-07T11:58:53.259Z,5.00
2023-05-07T12:01:20.562Z,3.22
2023-05-07T12:03:47.965Z,5.72
2023-05-07T12:06:18.513Z,4.85
2023-05-07T12:08:48.922Z,5.90
2023-05-07T12:11:23.380Z,5.40
2023-05-07T12:13:53.178Z,5.45
2023-05-07T12:16:21.741Z,5.15
2023-05-07T12:18:49.850Z,8.25
2023-05-07T12:21:18.480Z,5.88
2023-05-07T12:23:46.377Z,4.88
2023-05-07T12:26:13.643Z,3.33
2023-05-07T12:28:40.990Z,5.45
2023-05-07T12:31:09.315Z,4.82
2023-05-07T12:33:37.271Z,4.40
2023-05-07T12:36:07.973Z,5.60
2023-05-07T12:38:44.441Z,5.38
2023-05-07T12:41:13.717Z,2.30
2023-05-07T12:43:41.025Z,6.95
2023-05-07T12:46:09.586Z,5.82
2023-05-07T12:48:44.463Z,5.68
2023-05-07T12:51:13.509Z,5.80
2023-05-07T12:53:43.602Z,3.38
2023-05-07T12:56:11.163Z,6.47
2023-05-07T12:58:38.394Z,5.88
2023-05-07T13:01:08.431Z,4.55
2023-05-07T13:03:37.625Z,5.40
2023-05-07T13:06:07.643Z,6.05
2023-05-07T13:08:46.636Z,6.07
2023-05-07T13:11:14.486Z,3.65
2023-05-07T13:13:42.489Z,5.05
2023-05-07T13:16:12.290Z,3.75
2023-05-07T13:18:41.631Z,3.72
2023-05-07T13:21:08.996Z,4.30
2023-05-07T13:23:36.216Z,4.18
2023-05-07T13:26:08.552Z,4.68
2023-05-07T13:28:38.771Z,6.05
2023-05-07T13:31:05.839Z,3.15
2023-05-07T13:33:32.925Z,4.95
2023-05-07T13:36:01.704Z,6.40
2023-05-07T13:38:28.800Z,5.53
2023-05-07T13:40:56.265Z,6.57
2023-05-07T13:43:23.392Z,11.18
2023-05-07T13:45:50.615Z,8.55
2023-05-07T13:48:17.949Z,6.32
2023-05-07T13:50:45.140Z,9.65
2023-05-07T13:53:12.254Z,48.22
2023-05-07T13:55:39.392Z,62.28
2023-05-07T13:58:07.528Z,109.60
2023-05-07T14:00:34.973Z,44.05
2023-05-07T14:03:02.388Z,17.85
2023-05-07T14:05:29.472Z,24.42
2023-05-07T14:07:58.807Z,26.25
2023-05-07T14:10:26.214Z,21.52
2023-05-07T14:12:54.054Z,13.25
2023-05-07T14:15:21.361Z,7.80
2023-05-07T14:17:48.381Z,8.25
2023-05-07T14:20:15.609Z,7.93
2023-05-07T14:22:43.098Z,7.53
2023-05-07T14:25:14.202Z,6.22
2023-05-07T14:27:43.174Z,8.30
2023-05-07T14:30:10.730Z,10.25
2023-05-07T14:32:37.972Z,8.02
2023-05-07T14:35:05.557Z,9.88
2023-05-07T14:37:34.281Z,8.73
2023-05-07T14:40:01.316Z,5.43
2023-05-07T14:42:28.898Z,4.75
2023-05-07T14:44:55.953Z,5.30
2023-05-07T14:47:23.343Z,6.50
2023-05-07T14:49:50.582Z,5.25
2023-05-07T14:52:17.953Z,5.32
2023-05-07T14:54:44.936Z,5.85
2023-05-07T14:57:14.606Z,4.40
2023-05-07T14:59:42.632Z,6.70
2023-05-07T15:02:11.485Z,9.40
2023-05-07T15:04:40.791Z,4.35
2023-05-07T15:07:07.781Z,3.58
2023-05-07T15:09:34.833Z,4.80
2023-05-07T15:12:03.416Z,5.75
2023-05-07T15:14:30.818Z,7.07
2023-05-07T15:16:57.978Z,6.03
2023-05-07T15:19:29.965Z,6.45
2023-05-07T15:21:59.016Z,4.55
2023-05-07T15:24:26.262Z,5.95
2023-05-07T15:26:53.554Z,8.25
2023-05-07T15:29:21.451Z,9.57
2023-05-07T15:31:48.689Z,7.93
2023-05-07T15:34:18.574Z,9.95
2023-05-07T15:36:45.877Z,7.45
2023-05-07T15:39:12.975Z,5.45
2023-05-07T15:41:40.118Z,6.80
2023-05-07T15:44:07.294Z,6.13
2023-05-07T15:46:34.331Z,4.72
2023-05-07T15:49:06.686Z,5.72
2023-05-07T15:51:37.192Z,4.32
2023-05-07T15:54:04.877Z,3.65
2023-05-07T15:56:35.165Z,4.38
2023-05-07T15:59:03.820Z,5.10
2023-05-07T16:01:31.526Z,5.63
2023-05-07T16:03:58.899Z,4.85
2023-05-07T16:06:26.357Z,4.82
2023-05-07T16:08:53.566Z,3.15
2023-05-07T16:11:20.665Z,3.53
2023-05-07T16:13:47.801Z,5.90
2023-05-07T16:16:14.826Z,6.80
2023-05-07T16:18:42.002Z,6.47
2023-05-07T16:21:09.305Z,5.13
2023-05-07T16:23:37.406Z,5.10
2023-05-07T16:26:05.278Z,4.60
2023-05-07T16:28:32.591Z,3.35
2023-05-07T16:30:59.902Z,4.38
2023-05-07T16:33:27.280Z,5.40
2023-05-07T16:35:54.440Z,4.30
2023-05-07T16:38:21.884Z,4.88
2023-05-07T16:40:49.032Z,3.88
2023-05-07T16:43:16.209Z,6.88
2023-05-07T16:45:43.401Z,5.05
2023-05-07T16:48:11.413Z,3.53
2023-05-07T16:50:38.579Z,6.82
2023-05-07T16:53:07.018Z,7.18
2023-05-07T16:55:38.953Z,6.03
2023-05-07T16:58:07.145Z,6.32
2023-05-07T17:00:46.298Z,4.50
2023-05-07T17:05:46.139Z,4.20
2023-05-07T17:08:14.307Z,4.57
2023-05-07T17:10:42.217Z,5.68
2023-05-07T17:13:09.465Z,5.65
2023-05-07T17:15:36.678Z,5.50
2023-05-07T17:18:04.001Z,6.05
2023-05-07T17:20:31.351Z,5.28
2023-05-07T17:22:58.415Z,5.68
2023-05-07T17:25:25.656Z,3.10
2023-05-07T17:27:53.038Z,5.75
2023-05-07T17:30:21.022Z,4.95
2023-05-07T17:32:48.284Z,6.75
2023-05-07T17:35:15.792Z,5.22
2023-05-07T17:37:47.306Z,6.45
2023-05-07T17:40:15.506Z,5.95
2023-05-07T17:42:42.700Z,7.95
2023-05-07T17:45:10.671Z,5.25
2023-05-07T17:47:37.962Z,8.55
2023-05-07T17:50:10.856Z,5.03
2023-05-07T17:52:39.393Z,8.73
2023-05-07T17:55:07.354Z,5.25
2023-05-07T17:57:37.488Z,7.00
2023-05-07T18:00:10.324Z,5.55
2023-05-07T18:02:40.960Z,5.68
2023-05-07T18:05:09.660Z,4.75
2023-05-07T18:07:37.441Z,6.60
2023-05-07T18:10:04.948Z,7.32
2023-05-07T18:12:34.141Z,9.13
2023-05-07T18:15:02.272Z,5.68
2023-05-07T18:17:34.743Z,8.27
2023-05-07T18:20:02.834Z,8.13
2023-05-07T18:22:32.374Z,8.18
2023-05-07T18:25:00.604Z,11.35
2023-05-07T18:27:27.798Z,7.05
2023-05-07T18:29:55.149Z,5.45
2023-05-07T18:32:22.757Z,7.70
2023-05-07T18:34:50.155Z,7.32
2023-05-07T18:37:17.393Z,7.82
2023-05-07T18:39:44.649Z,10.15
2023-05-07T18:42:15.317Z,8.15
2023-05-07T18:44:42.644Z,6.63
2023-05-07T18:47:14.024Z,8.10
2023-05-07T18:49:41.292Z,8.05
2023-05-07T18:52:08.369Z,7.93
2023-05-07T18:54:35.583Z,10.30
2023-05-07T18:57:02.670Z,7.13
2023-05-07T18:59:29.893Z,6.60
2023-05-07T19:01:57.065Z,7.03
2023-05-07T19:04:24.676Z,7.95
2023-05-07T19:06:52.127Z,9.32
2023-05-07T19:09:19.219Z,6.93
2023-05-07T19:11:46.307Z,8.70
2023-05-07T19:14:13.320Z,7.65
2023-05-07T19:16:40.556Z,13.32
2023-05-07T19:19:07.761Z,8.18
2023-05-07T19:21:34.853Z,10.27
2023-05-07T19:24:01.986Z,9.35
2023-05-07T19:26:29.117Z,9.20
2023-05-07T19:29:12.189Z,7.55
2023-05-07T19:31:45.937Z,7.97
2023-05-07T19:34:16.173Z,10.27
2023-05-07T19:36:43.555Z,8.25
2023-05-07T19:39:11.790Z,7.55
2023-05-07T19:41:39.078Z,7.78
2023-05-07T19:44:06.124Z,6.28
2023-05-07T19:46:33.646Z,8.95
2023-05-07T19:49:02.128Z,11.50
2023-05-07T19:51:32.532Z,9.32
2023-05-07T19:54:00.203Z,8.25
2023-05-07T19:56:27.485Z,6.47
2023-05-07T19:58:55.116Z,9.52
2023-05-07T20:01:22.259Z,7.38
2023-05-07T20:03:49.456Z,7.63
2023-05-07T20:06:16.615Z,6.85
2023-05-07T20:08:45.041Z,8.82
2023-05-07T20:11:13.566Z,9.65
2023-05-07T20:13:41.101Z,8.45
2023-05-07T20:16:08.330Z,10.13
2023-05-07T20:18:35.522Z,9.70
2023-05-07T20:21:02.765Z,8.35
2023-05-07T20:23:29.819Z,8.07
2023-05-07T20:25:58.110Z,9.57
2023-05-07T20:28:25.777Z,12.30
2023-05-07T20:30:52.911Z,9.73
2023-05-07T20:33:19.984Z,9.95
2023-05-07T20:35:47.236Z,7.80
2023-05-07T20:38:14.569Z,9.93
2023-05-07T20:40:41.734Z,7.70
2023-05-07T20:43:08.968Z,9.25
2023-05-07T20:45:36.200Z,7.88
2023-05-07T20:48:03.408Z,7.85
2023-05-07T20:50:30.891Z,7.78
2023-05-07T20:52:58.050Z,8.90
2023-05-07T20:55:25.150Z,8.70
2023-05-07T20:57:52.234Z,7.38
2023-05-07T21:00:19.754Z,11.65
2023-05-07T21:02:48.151Z,8.55
2023-05-07T21:05:15.417Z,8.90
2023-05-07T21:07:42.423Z,10.07
2023-05-07T21:10:10.030Z,11.55
2023-05-07T21:12:37.312Z,9.85
2023-05-07T21:15:04.613Z,8.73
2023-05-07T21:17:35.363Z,8.75
2023-05-07T21:20:03.964Z,7.88
2023-05-07T21:22:33.808Z,8.57
2023-05-07T21:25:01.473Z,11.18
2023-05-07T21:27:32.561Z,11.60
2023-05-07T21:30:04.855Z,10.15
2023-05-07T21:32:34.107Z,9.95
2023-05-07T21:35:02.054Z,11.05
2023-05-07T21:37:34.077Z,9.05
2023-05-07T21:40:01.194Z,10.40
2023-05-07T21:42:32.642Z,8.95
2023-05-07T21:45:00.422Z,9.95
2023-05-07T21:47:27.977Z,10.15
2023-05-07T21:49:55.754Z,8.43
2023-05-07T21:52:26.142Z,11.15
2023-05-07T21:54:53.977Z,10.45
2023-05-07T21:57:21.548Z,9.57
2023-05-07T21:59:48.689Z,8.43
2023-05-07T22:02:15.805Z,11.80
2023-05-07T22:04:43.510Z,11.55
2023-05-07T22:07:10.770Z,12.38
2023-05-07T22:09:56.439Z,9.65
2023-05-07T22:12:23.849Z,10.18
2023-05-07T22:14:51.051Z,11.05
2023-05-07T22:17:18.049Z,11.70
2023-05-07T22:19:45.364Z,9.48
2023-05-07T22:22:12.390Z,9.65
2023-05-07T22:24:39.483Z,11.10
2023-05-07T22:27:06.579Z,12.05
2023-05-07T22:29:33.818Z,8.32
2023-05-07T22:32:00.951Z,10.60
2023-05-07T22:34:28.348Z,10.35
2023-05-07T22:36:55.440Z,10.80
2023-05-07T22:39:22.451Z,10.38
2023-05-07T22:41:49.761Z,8.52
2023-05-07T22:44:17.088Z,9.90
2023-05-07T22:46:44.328Z,8.98
2023-05-07T22:49:11.415Z,9.68
2023-05-07T22:51:38.369Z,11.43
2023-05-07T22:54:05.623Z,9.55
2023-05-07T22:56:32.630Z,12.32
2023-05-07T22:58:59.908Z,9.90
2023-05-07T23:01:27.175Z,10.55
2023-05-07T23:03:55.012Z,9.15
2023-05-07T23:06:22.083Z,9.65
2023-05-07T23:08:49.148Z,10.20
2023-05-07T23:11:16.452Z,11.88
2023-05-07T23:13:43.447Z,10.93
2023-05-07T23:16:11.196Z,9.98
2023-05-07T23:18:38.255Z,11.98
2023-05-07T23:21:06.771Z,11.07
2023-05-07T23:23:35.490Z,9.05
2023-05-07T23:26:02.709Z,8.75
2023-05-07T23:28:29.858Z,11.43
2023-05-07T23:30:57.053Z,9.82
2023-05-07T23:33:24.152Z,11.00
2023-05-07T23:35:59.607Z,14.35
2023-05-07T23:38:27.004Z,12.27
2023-05-07T23:40:55.881Z,11.93
2023-05-07T23:43:23.515Z,12.25
2023-05-07T23:45:50.830Z,11.80
2023-05-07T23:48:18.381Z,12.75
2023-05-07T23:50:45.486Z,13.45
2023-05-07T23:53:12.492Z,12.10
2023-05-07T23:55:39.559Z,12.00
2023-05-07T23:58:06.565Z,11.40
